Time;durP1;ratioP1;P1;durP2;ratioP2;P2;SDS_P1;SDS_P2;PMS_P1;PMS_P2;Temp;Humidity;BMP_temperature;BMP_pressure;BME280_temperature;BME280_humidity;BME280_pressure;Samples;Min_cycle;Max_cycle;Signal;HPM_P1;HPM_P2
2021/01/27 00:00:06;;;;;;;10.52;6.05;;;2.60;99.90;;;;;;4896681;29;20213;-78
2021/01/27 00:02:34;;;;;;;7.30;6.32;;;2.70;99.90;;;;;;4894795;29;20221;-78
2021/01/27 00:04:59;;;;;;;7.95;5.60;;;2.60;99.90;;;;;;4896458;29;20198;-78
2021/01/27 00:07:25;;;;;;;7.60;5.80;;;2.60;99.90;;;;;;4894897;29;20735;-78
2021/01/27 00:09:51;;;;;;;9.37;6.40;;;2.70;99.90;;;;;;4896679;29;20684;-78
2021/01/27 00:12:16;;;;;;;6.57;5.63;;;2.70;99.90;;;;;;4894615;29;20641;-79
2021/01/27 00:14:42;;;;;;;9.30;6.23;;;2.70;99.90;;;;;;4896557;29;20198;-78
2021/01/27 00:17:08;;;;;;;7.73;6.27;;;2.80;99.90;;;;;;4896110;29;20201;-78
2021/01/27 00:19:33;;;;;;;7.30;5.77;;;2.80;99.90;;;;;;4896912;29;20289;-78
2021/01/27 00:21:59;;;;;;;8.20;6.00;;;2.80;99.90;;;;;;4896179;29;20225;-78
2021/01/27 00:24:25;;;;;;;6.67;5.63;;;2.70;99.90;;;;;;4897117;29;20560;-78
2021/01/27 00:26:50;;;;;;;6.70;5.83;;;2.70;99.90;;;;;;4896546;29;20621;-78
2021/01/27 00:29:16;;;;;;;11.43;6.60;;;2.70;99.90;;;;;;4897013;29;20225;-78
2021/01/27 00:31:42;;;;;;;6.40;5.60;;;2.70;99.90;;;;;;4897321;29;20173;-79
2021/01/27 00:34:08;;;;;;;7.90;6.37;;;2.80;99.90;;;;;;4896869;29;20227;-78
2021/01/27 00:36:33;;;;;;;8.40;6.07;;;2.80;99.90;;;;;;4897613;29;20166;-79
2021/01/27 00:38:59;;;;;;;8.57;6.40;;;2.80;99.90;;;;;;4896813;29;20221;-79
2021/01/27 00:41:29;;;;;;;9.13;6.43;;;2.80;99.90;;;;;;4897583;29;20186;-78
2021/01/27 00:43:54;;;;;;;8.85;6.00;;;2.80;99.90;;;;;;4897167;29;20253;-79
2021/01/27 00:46:20;;;;;;;10.17;8.00;;;2.80;99.90;;;;;;4897781;29;20664;-79
2021/01/27 00:48:48;;;;;;;6.87;6.00;;;2.70;99.90;;;;;;4897091;29;20277;-79
2021/01/27 00:51:15;;;;;;;6.97;6.10;;;2.70;99.90;;;;;;4897629;29;20281;-79
2021/01/27 00:53:42;;;;;;;7.30;5.30;;;2.70;99.90;;;;;;4897038;29;20233;-79
2021/01/27 00:56:08;;;;;;;7.40;5.70;;;2.70;99.90;;;;;;4897698;29;20186;-79
2021/01/27 00:58:33;;;;;;;9.43;5.03;;;2.70;99.90;;;;;;4896722;29;20244;-79
2021/01/27 01:00:59;;;;;;;7.43;6.00;;;2.70;99.90;;;;;;4897709;29;20190;-79
2021/01/27 01:03:25;;;;;;;9.67;5.73;;;2.70;99.90;;;;;;4896991;29;20213;-79
2021/01/27 01:05:51;;;;;;;7.93;5.83;;;2.60;99.90;;;;;;4897580;29;20194;-79
2021/01/27 01:08:18;;;;;;;7.43;5.60;;;2.60;99.90;;;;;;4897313;29;20234;-79
2021/01/27 01:10:50;;;;;;;10.65;6.32;;;2.60;99.90;;;;;;4897584;29;20205;-78
2021/01/27 01:13:23;;;;;;;10.48;5.10;;;2.60;99.90;;;;;;4896960;29;20222;-79
2021/01/27 01:15:49;;;;;;;7.40;5.80;;;2.70;99.90;;;;;;4897510;29;20193;-79
2021/01/27 01:18:14;;;;;;;8.80;4.90;;;2.70;99.90;;;;;;4897100;29;20657;-79
2021/01/27 01:20:40;;;;;;;5.67;4.13;;;2.70;99.90;;;;;;4897536;29;20445;-80
2021/01/27 01:23:07;;;;;;;4.83;3.73;;;2.70;99.90;;;;;;4897034;29;20450;-79
2021/01/27 01:25:34;;;;;;;6.35;4.35;;;2.70;99.90;;;;;;4897591;29;20434;-80
2021/01/27 01:28:00;;;;;;;5.72;4.07;;;2.70;99.90;;;;;;4897540;29;20225;-79
2021/01/27 01:30:30;;;;;;;6.32;4.50;;;2.70;99.90;;;;;;4896379;29;20546;-80
2021/01/27 01:33:00;;;;;;;6.22;5.03;;;2.70;99.90;;;;;;4895729;29;20270;-80
2021/01/27 01:35:26;;;;;;;9.15;3.80;;;2.70;99.90;;;;;;4897516;29;20190;-79
2021/01/27 01:37:52;;;;;;;5.90;4.63;;;2.70;99.90;;;;;;4897120;29;20633;-79
2021/01/27 01:40:23;;;;;;;5.05;4.55;;;2.70;99.90;;;;;;4897700;29;20186;-80
2021/01/27 01:43:10;;;;;;;5.13;3.55;;;2.80;99.90;;;;;;4898612;29;20225;-80
2021/01/27 01:45:39;;;;;;;4.25;3.85;;;2.70;99.90;;;;;;4900869;29;20258;-80
2021/01/27 01:48:14;;;;;;;6.10;4.18;;;2.70;99.90;;;;;;4899234;29;20214;-80
2021/01/27 01:50:40;;;;;;;6.53;4.20;;;2.70;99.90;;;;;;4900643;29;20201;-79
2021/01/27 01:53:06;;;;;;;6.10;3.80;;;2.80;99.90;;;;;;4899986;29;20312;-80
2021/01/27 01:55:33;;;;;;;3.13;2.80;;;2.80;99.90;;;;;;4900646;29;20442;-80
2021/01/27 01:57:59;;;;;;;4.80;2.90;;;2.80;99.90;;;;;;4907740;29;20229;-78
2021/01/27 02:00:27;;;;;;;4.32;2.55;;;2.80;99.90;;;;;;4917360;29;20278;-78
2021/01/27 02:02:54;;;;;;;2.75;2.10;;;2.80;99.90;;;;;;4905672;29;20206;-78
2021/01/27 02:05:22;;;;;;;3.38;2.45;;;2.80;99.90;;;;;;4918982;29;20197;-78
2021/01/27 02:07:50;;;;;;;2.97;2.10;;;2.70;99.90;;;;;;4873199;29;20573;-80
2021/01/27 02:10:19;;;;;;;4.10;2.85;;;2.70;99.90;;;;;;4880274;29;20209;-80
2021/01/27 02:13:43;;;;;;;3.40;2.38;;;2.70;99.90;;;;;;4870052;29;20226;-80
2021/01/27 02:16:46;;;;;;;3.25;2.67;;;2.70;99.90;;;;;;4882192;29;20268;-80
2021/01/27 02:19:34;;;;;;;2.75;2.55;;;2.60;99.90;;;;;;4867131;29;20585;-79
2021/01/27 02:22:28;;;;;;;2.95;2.65;;;2.70;99.90;;;;;;4880743;29;20282;-80
2021/01/27 02:25:31;;;;;;;3.67;2.60;;;2.70;99.90;;;;;;4879866;29;20713;-79
2021/01/27 02:28:00;;;;;;;7.38;2.75;;;2.60;99.90;;;;;;4880836;29;20760;-80
2021/01/27 02:30:32;;;;;;;8.80;2.80;;;2.70;99.90;;;;;;4880708;29;20195;-80
2021/01/27 02:33:09;;;;;;;3.10;2.80;;;2.70;99.90;;;;;;4899315;29;20253;-80
2021/01/27 02:35:49;;;;;;;4.75;2.90;;;2.70;99.90;;;;;;4898513;29;20562;-80
2021/01/27 02:38:59;;;;;;;3.05;2.75;;;2.60;99.90;;;;;;4899273;29;20308;-80
2021/01/27 02:41:47;;;;;;;3.63;2.40;;;2.60;99.90;;;;;;4899746;29;20273;-80
2021/01/27 02:44:20;;;;;;;4.20;2.92;;;2.60;99.90;;;;;;4898898;29;20688;-79
2021/01/27 02:47:01;;;;;;;5.72;3.28;;;2.60;99.90;;;;;;4899897;29;20205;-79
2021/01/27 02:49:36;;;;;;;6.00;3.05;;;2.60;99.90;;;;;;4899796;29;20704;-80
2021/01/27 02:52:20;;;;;;;3.80;3.10;;;2.60;99.90;;;;;;4898734;29;20197;-79
2021/01/27 02:54:58;;;;;;;3.00;2.80;;;2.60;99.90;;;;;;4899506;29;20197;-80
2021/01/27 02:57:38;;;;;;;5.30;3.38;;;2.60;99.90;;;;;;4898052;29;20370;-80
2021/01/27 03:00:12;;;;;;;4.53;2.78;;;2.60;99.90;;;;;;4899243;29;20198;-80
2021/01/27 03:03:18;;;;;;;5.97;2.80;;;2.60;99.90;;;;;;4898785;29;20205;-80
2021/01/27 03:05:51;;;;;;;3.67;2.63;;;2.60;99.90;;;;;;4897719;29;20201;-80
2021/01/27 03:08:24;;;;;;;4.45;3.10;;;2.60;99.90;;;;;;4899146;29;20214;-80
2021/01/27 03:11:12;;;;;;;3.45;2.80;;;2.60;99.90;;;;;;4899115;29;20197;-80
2021/01/27 03:13:39;;;;;;;6.03;3.90;;;2.60;99.90;;;;;;4898528;29;20205;-79
2021/01/27 03:16:11;;;;;;;4.85;3.10;;;2.70;99.90;;;;;;4898737;29;20201;-79
2021/01/27 03:18:44;;;;;;;6.63;2.80;;;2.70;99.90;;;;;;4902239;29;20300;-79
2021/01/27 03:21:19;;;;;;;11.23;3.72;;;2.70;99.90;;;;;;4897637;29;20227;-79
2021/01/27 03:23:49;;;;;;;5.55;2.60;;;2.60;99.90;;;;;;4898153;29;20213;-79
2021/01/27 03:26:55;;;;;;;2.60;2.20;;;2.60;99.90;;;;;;4898877;29;20186;-79
2021/01/27 03:29:33;;;;;;;3.95;2.28;;;2.60;99.90;;;;;;4894977;29;20580;-80
2021/01/27 03:32:06;;;;;;;3.78;2.47;;;2.60;99.90;;;;;;4898050;29;20198;-79
2021/01/27 03:34:40;;;;;;;2.25;2.00;;;2.60;99.90;;;;;;4898449;29;20236;-80
2021/01/27 03:37:27;;;;;;;3.55;2.10;;;2.70;99.90;;;;;;4873281;29;20453;-78
2021/01/27 03:39:58;;;;;;;3.05;1.95;;;2.70;99.90;;;;;;4918125;29;20201;-77
2021/01/27 03:42:56;;;;;;;6.13;2.50;;;2.60;99.90;;;;;;4918357;29;20229;-77
2021/01/27 03:45:25;;;;;;;3.58;2.17;;;2.60;99.90;;;;;;4918173;29;20198;-78
2021/01/27 03:48:11;;;;;;;3.78;2.53;;;2.60;99.90;;;;;;4903601;29;20257;-78
2021/01/27 03:50:38;;;;;;;5.70;3.72;;;2.60;99.90;;;;;;4919247;29;20170;-77
2021/01/27 03:53:08;;;;;;;6.20;3.83;;;2.60;99.90;;;;;;4919306;29;20216;-77
2021/01/27 03:55:57;;;;;;;8.30;4.38;;;2.70;99.90;;;;;;4918764;29;20222;-77
2021/01/27 03:58:33;;;;;;;7.90;4.22;;;2.60;99.90;;;;;;4917825;29;20214;-78
2021/01/27 04:01:04;;;;;;;3.42;3.10;;;2.70;99.90;;;;;;4915572;29;20197;-77
2021/01/27 04:03:30;;;;;;;7.65;3.83;;;2.70;99.90;;;;;;4921076;29;20210;-77
2021/01/27 04:05:56;;;;;;;3.55;2.90;;;2.70;99.90;;;;;;4925542;29;20182;-77
2021/01/27 04:08:22;;;;;;;3.30;1.97;;;2.70;99.90;;;;;;4917888;29;20209;-77
2021/01/27 04:10:47;;;;;;;2.73;1.47;;;2.70;99.90;;;;;;4915157;29;20197;-77
2021/01/27 04:13:13;;;;;;;3.80;2.20;;;2.70;99.90;;;;;;4917691;29;20213;-77
2021/01/27 04:15:39;;;;;;;1.73;1.40;;;2.70;99.90;;;;;;4917288;29;20217;-77
2021/01/27 04:18:05;;;;;;;3.83;1.77;;;2.70;99.90;;;;;;4918659;29;20453;-77
2021/01/27 04:20:31;;;;;;;1.80;1.33;;;2.70;99.90;;;;;;4918458;29;20221;-77
2021/01/27 04:22:57;;;;;;;4.67;1.80;;;2.70;99.90;;;;;;4916111;29;20450;-78
2021/01/27 04:25:22;;;;;;;2.27;1.20;;;2.70;99.90;;;;;;4913865;29;20198;-77
2021/01/27 04:27:49;;;;;;;2.43;1.53;;;2.80;99.90;;;;;;4917655;29;20465;-78
2021/01/27 04:30:18;;;;;;;2.78;1.45;;;2.80;99.90;;;;;;4918173;29;20446;-77
2021/01/27 04:32:44;;;;;;;1.45;1.15;;;2.80;99.90;;;;;;4916063;29;20228;-77
2021/01/27 04:35:11;;;;;;;4.57;1.90;;;2.80;99.90;;;;;;4918203;29;20182;-77
2021/01/27 04:37:37;;;;;;;1.55;1.15;;;2.70;99.90;;;;;;4914569;29;20221;-77
2021/01/27 04:40:10;;;;;;;3.38;1.05;;;2.70;99.90;;;;;;4918400;29;20201;-77
2021/01/27 04:42:36;;;;;;;2.90;1.50;;;2.70;99.90;;;;;;4915004;29;20232;-77
2021/01/27 04:45:05;;;;;;;2.43;1.47;;;2.70;99.90;;;;;;4915771;29;20198;-78
2021/01/27 04:47:47;;;;;;;2.17;1.50;;;2.70;99.90;;;;;;4917023;29;20228;-78
2021/01/27 04:50:34;;;;;;;2.17;1.50;;;2.80;99.90;;;;;;4916016;29;20194;-77
2021/01/27 04:53:29;;;;;;;3.90;1.20;;;2.80;99.90;;;;;;4917308;29;20225;-77
2021/01/27 04:56:25;;;;;;;1.52;1.25;;;2.70;99.90;;;;;;4899981;29;20202;-77
2021/01/27 04:59:04;;;;;;;6.03;2.05;;;2.70;99.90;;;;;;4913710;29;20692;-77
2021/01/27 05:01:57;;;;;;;1.40;1.00;;;2.70;99.90;;;;;;4917077;29;20189;-77
2021/01/27 05:04:29;;;;;;;1.90;0.90;;;2.70;99.90;;;;;;4915662;29;20206;-77
2021/01/27 05:07:01;;;;;;;1.30;0.88;;;2.80;99.90;;;;;;4916049;29;20249;-78
2021/01/27 05:09:50;;;;;;;2.60;1.00;;;2.70;99.90;;;;;;4917203;29;20194;-78
2021/01/27 05:12:17;;;;;;;1.30;0.73;;;2.70;99.90;;;;;;4917771;29;20218;-78
2021/01/27 05:14:47;;;;;;;1.20;1.02;;;2.80;99.90;;;;;;4916682;29;20186;-77
2021/01/27 05:17:16;;;;;;;1.80;1.40;;;2.80;99.90;;;;;;4919380;29;20245;-77
2021/01/27 05:19:43;;;;;;;2.15;1.25;;;2.80;99.90;;;;;;4920134;29;20171;-77
2021/01/27 05:22:11;;;;;;;3.35;1.50;;;2.80;99.90;;;;;;4921425;29;20198;-77
2021/01/27 05:24:37;;;;;;;1.40;1.00;;;2.80;99.90;;;;;;4922668;29;20193;-77
2021/01/27 05:27:30;;;;;;;2.00;1.57;;;2.70;99.90;;;;;;4920668;29;20194;-78
2021/01/27 05:30:07;;;;;;;1.60;1.30;;;2.70;99.90;;;;;;4916392;29;20414;-78
2021/01/27 05:32:57;;;;;;;1.98;1.80;;;2.60;99.90;;;;;;4919241;29;20331;-78
2021/01/27 05:35:28;;;;;;;2.08;1.20;;;2.60;99.90;;;;;;4920291;29;20267;-78
2021/01/27 05:37:55;;;;;;;2.80;1.58;;;2.60;99.90;;;;;;4917973;29;20233;-78
2021/01/27 05:40:24;;;;;;;2.10;1.48;;;2.60;99.90;;;;;;4919677;29;20154;-77
2021/01/27 05:42:50;;;;;;;1.65;1.50;;;2.50;99.90;;;;;;4919933;29;20233;-77
2021/01/27 05:45:39;;;;;;;1.90;1.30;;;2.50;99.90;;;;;;4920028;29;20186;-77
2021/01/27 05:48:40;;;;;;;1.60;1.35;;;2.50;99.90;;;;;;4904513;29;20466;-77
2021/01/27 05:51:05;;;;;;;2.20;1.10;;;2.50;99.90;;;;;;4916227;29;20255;-77
2021/01/27 05:53:33;;;;;;;2.07;1.00;;;2.40;99.90;;;;;;4914884;29;20589;-77
2021/01/27 05:56:21;;;;;;;2.00;1.50;;;2.50;99.90;;;;;;4915129;29;20244;-77
2021/01/27 05:58:58;;;;;;;1.35;1.25;;;2.40;99.90;;;;;;4912353;29;20637;-78
2021/01/27 06:01:33;;;;;;;2.70;1.08;;;2.30;99.90;;;;;;4913401;29;20206;-77
2021/01/27 06:04:11;;;;;;;2.38;2.03;;;2.30;99.90;;;;;;4912813;29;20211;-77
2021/01/27 06:06:46;;;;;;;2.00;1.15;;;2.30;99.90;;;;;;4913311;29;20200;-78
2021/01/27 06:09:13;;;;;;;2.10;1.40;;;2.20;99.90;;;;;;4915680;29;20213;-77
2021/01/27 06:11:39;;;;;;;1.83;0.88;;;2.20;99.90;;;;;;4917995;29;20270;-78
2021/01/27 06:14:12;;;;;;;2.47;1.60;;;2.20;99.90;;;;;;4916926;29;20233;-77
2021/01/27 06:16:44;;;;;;;1.60;1.48;;;2.20;99.90;;;;;;4913366;29;20202;-77
2021/01/27 06:19:15;;;;;;;2.20;1.50;;;2.20;99.90;;;;;;4915333;29;20229;-78
2021/01/27 06:22:02;;;;;;;2.15;1.70;;;2.20;99.90;;;;;;4914256;29;20582;-78
2021/01/27 06:24:37;;;;;;;3.35;1.50;;;2.20;99.90;;;;;;4911142;29;20217;-77
2021/01/27 06:27:25;;;;;;;2.03;1.60;;;2.20;99.90;;;;;;4909559;29;20197;-77
2021/01/27 06:29:50;;;;;;;1.52;1.35;;;2.10;99.90;;;;;;4903015;29;20184;-77
2021/01/27 06:32:28;;;;;;;1.83;1.37;;;2.10;99.90;;;;;;4908394;29;20259;-77
2021/01/27 06:35:11;;;;;;;2.28;1.40;;;2.10;99.90;;;;;;4907163;29;20262;-77
2021/01/27 06:37:59;;;;;;;2.17;1.50;;;2.10;99.90;;;;;;4907067;29;20231;-78
2021/01/27 06:40:59;;;;;;;2.63;1.88;;;2.10;99.90;;;;;;4904055;29;20181;-77
2021/01/27 06:44:00;;;;;;;2.97;1.40;;;2.20;99.90;;;;;;4904790;29;20228;-77
2021/01/27 06:46:48;;;;;;;2.25;1.50;;;2.20;99.90;;;;;;4903325;29;20171;-77
2021/01/27 06:49:24;;;;;;;2.05;1.85;;;2.20;99.90;;;;;;4885420;29;20302;-77
2021/01/27 06:52:01;;;;;;;2.15;1.33;;;2.30;99.90;;;;;;4884193;29;20205;-77
2021/01/27 06:54:51;;;;;;;2.38;1.67;;;2.30;99.90;;;;;;4900697;29;20229;-77
2021/01/27 06:57:44;;;;;;;3.28;1.40;;;2.30;99.90;;;;;;4900551;29;20218;-78
2021/01/27 07:00:24;;;;;;;1.65;1.45;;;2.30;99.90;;;;;;4882563;29;20190;-77
2021/01/27 07:03:06;;;;;;;3.00;1.85;;;2.30;99.90;;;;;;4880282;29;20242;-79
2021/01/27 07:06:09;;;;;;;3.47;2.25;;;2.30;99.90;;;;;;4880461;29;20553;-79
2021/01/27 07:08:53;;;;;;;1.98;1.80;;;2.30;99.90;;;;;;4875565;29;20209;-78
2021/01/27 07:12:07;;;;;;;2.45;1.60;;;2.30;99.90;;;;;;4914995;29;20238;-78
2021/01/27 07:14:52;;;;;;;2.20;1.75;;;2.30;99.90;;;;;;4859878;29;20790;-78
2021/01/27 07:17:25;;;;;;;3.97;1.25;;;2.30;99.90;;;;;;4906417;29;20243;-78
2021/01/27 07:20:45;;;;;;;3.00;1.83;;;2.30;99.90;;;;;;4888799;29;20170;-80
2021/01/27 07:23:29;;;;;;;3.42;2.08;;;2.30;99.90;;;;;;4898407;29;20214;-80
2021/01/27 07:26:10;;;;;;;1.80;1.70;;;2.40;99.90;;;;;;4898873;29;20581;-80
2021/01/27 07:29:14;;;;;;;4.70;1.63;;;2.40;99.90;;;;;;4898765;29;20214;-80
2021/01/27 07:32:11;;;;;;;3.25;2.10;;;2.30;99.90;;;;;;4863697;29;20206;-80
2021/01/27 07:34:47;;;;;;;2.10;1.90;;;2.40;99.90;;;;;;4913166;29;20260;-80
2021/01/27 07:37:30;;;;;;;3.25;2.17;;;2.40;99.90;;;;;;4898646;29;20221;-80
2021/01/27 07:40:31;;;;;;;7.70;2.25;;;2.40;99.90;;;;;;4880590;29;20165;-80
2021/01/27 07:43:18;;;;;;;1.45;1.33;;;2.50;99.90;;;;;;4862678;29;20262;-80
2021/01/27 07:45:49;;;;;;;3.40;1.95;;;2.50;99.90;;;;;;4879436;29;20190;-80
2021/01/27 07:48:40;;;;;;;2.40;1.90;;;2.50;99.90;;;;;;4882027;29;20314;-80
2021/01/27 07:51:31;;;;;;;1.88;1.58;;;2.50;99.90;;;;;;4897797;29;20185;-80
2021/01/27 07:54:26;;;;;;;1.60;1.42;;;2.60;99.90;;;;;;4896700;29;20592;-81
2021/01/27 07:57:25;;;;;;;2.33;1.42;;;2.60;99.90;;;;;;4878114;29;20175;-80
2021/01/27 08:00:01;;;;;;;2.50;1.52;;;2.70;99.90;;;;;;4885526;29;20189;-79
2021/01/27 08:02:31;;;;;;;1.50;1.40;;;2.60;99.90;;;;;;4879553;29;20213;-80
2021/01/27 08:05:04;;;;;;;2.97;1.80;;;2.60;99.90;;;;;;4892234;29;20194;-80
2021/01/27 08:07:33;;;;;;;1.63;1.27;;;2.50;99.90;;;;;;4898169;29;20221;-81
2021/01/27 08:10:23;;;;;;;1.67;1.58;;;2.50;99.90;;;;;;4901506;29;20182;-80
2021/01/27 08:12:55;;;;;;;1.58;1.40;;;2.50;99.90;;;;;;4898435;29;20300;-80
2021/01/27 08:15:23;;;;;;;2.70;1.55;;;2.50;99.90;;;;;;4898929;29;20190;-80
2021/01/27 08:17:55;;;;;;;2.40;2.20;;;2.50;99.90;;;;;;4899276;29;20214;-79
2021/01/27 08:23:51;;;;;;;2.35;1.95;;;2.50;99.90;;;;;;4905471;29;20289;-82
2021/01/27 08:26:42;;;;;;;2.67;1.77;;;2.50;99.90;;;;;;4898343;29;20170;-80
2021/01/27 08:29:12;;;;;;;2.22;1.88;;;2.50;99.90;;;;;;4899828;29;20214;-78
2021/01/27 08:31:38;;;;;;;2.20;1.75;;;2.40;99.90;;;;;;4900027;29;20189;-80
2021/01/27 08:34:04;;;;;;;8.57;2.75;;;2.40;99.90;;;;;;4897284;29;20226;-80
2021/01/27 08:36:33;;;;;;;3.55;2.35;;;2.40;99.90;;;;;;4898281;29;20174;-80
2021/01/27 08:39:00;;;;;;;1.88;1.77;;;2.40;99.90;;;;;;4900383;29;20214;-78
2021/01/27 08:41:41;;;;;;;2.17;1.98;;;2.40;99.90;;;;;;4905077;29;20174;-79
2021/01/27 08:44:29;;;;;;;4.13;2.40;;;2.40;99.90;;;;;;4896434;29;20711;-82
2021/01/27 08:47:18;;;;;;;5.32;2.20;;;2.50;99.90;;;;;;4906050;29;20170;-78
2021/01/27 08:49:58;;;;;;;7.15;2.40;;;2.40;99.90;;;;;;4903957;29;20288;-79
2021/01/27 08:52:29;;;;;;;4.38;2.63;;;2.40;99.90;;;;;;4900538;29;20213;-80
2021/01/27 08:54:55;;;;;;;6.35;4.30;;;2.40;99.90;;;;;;4908969;29;20304;-78
2021/01/27 08:57:24;;;;;;;2.95;2.40;;;2.40;99.90;;;;;;4911235;29;20218;-78
2021/01/27 09:00:07;;;;;;;2.40;2.00;;;2.30;99.90;;;;;;4911191;29;20205;-78
2021/01/27 09:02:44;;;;;;;3.38;2.10;;;2.30;99.90;;;;;;4907365;29;20206;-79
2021/01/27 09:05:19;;;;;;;3.45;3.15;;;2.30;99.90;;;;;;4908162;29;20185;-78
2021/01/27 09:08:11;;;;;;;3.60;2.47;;;2.30;99.90;;;;;;4911894;29;20220;-78
2021/01/27 09:10:49;;;;;;;3.25;2.28;;;2.40;99.90;;;;;;4898498;29;20183;-78
2021/01/27 09:13:27;;;;;;;8.02;4.75;;;2.50;99.90;;;;;;4910789;29;20228;-78
2021/01/27 09:15:57;;;;;;;4.40;3.70;;;2.50;99.90;;;;;;4886201;29;20618;-80
2021/01/27 09:18:23;;;;;;;4.38;3.55;;;2.50;99.90;;;;;;4882150;29;20226;-80
2021/01/27 09:20:49;;;;;;;4.33;3.20;;;2.50;99.90;;;;;;4886809;29;20198;-78
2021/01/27 09:23:19;;;;;;;3.42;2.45;;;2.50;99.90;;;;;;4905015;29;20450;-78
2021/01/27 09:25:47;;;;;;;4.07;3.33;;;2.40;99.90;;;;;;4906932;29;20704;-79
2021/01/27 09:28:21;;;;;;;2.78;2.55;;;2.50;99.90;;;;;;4908330;29;20221;-78
2021/01/27 09:30:47;;;;;;;4.65;2.75;;;2.60;99.90;;;;;;4904634;29;20561;-79
2021/01/27 09:33:19;;;;;;;4.50;2.83;;;2.60;99.90;;;;;;4909756;29;20220;-80
2021/01/27 09:35:47;;;;;;;2.90;2.60;;;2.50;99.90;;;;;;4904423;29;21093;-80
2021/01/27 09:38:21;;;;;;;4.82;2.40;;;2.50;99.90;;;;;;4896298;29;20230;-80
2021/01/27 09:40:51;;;;;;;3.30;2.60;;;2.50;99.90;;;;;;4903261;29;20241;-79
2021/01/27 09:43:20;;;;;;;2.50;2.30;;;2.50;99.90;;;;;;4900356;29;20225;-80
2021/01/27 09:45:49;;;;;;;2.60;2.40;;;2.60;99.90;;;;;;4900887;29;20615;-79
2021/01/27 09:48:17;;;;;;;4.45;3.15;;;2.60;99.90;;;;;;4900314;29;20689;-80
2021/01/27 09:50:53;;;;;;;2.80;2.45;;;2.60;99.90;;;;;;4907340;29;20210;-79
2021/01/27 09:53:26;;;;;;;3.15;2.80;;;2.60;99.90;;;;;;4908676;29;20228;-80
2021/01/27 09:55:53;;;;;;;2.38;2.17;;;2.60;99.90;;;;;;4900681;29;20254;-80
2021/01/27 09:58:19;;;;;;;3.30;2.45;;;2.60;99.90;;;;;;4905984;29;20218;-79
2021/01/27 10:00:46;;;;;;;5.72;2.15;;;2.70;99.90;;;;;;4907466;29;20530;-79
2021/01/27 10:03:34;;;;;;;2.85;1.75;;;2.70;99.90;;;;;;4895486;29;20234;-80
2021/01/27 10:06:03;;;;;;;2.90;2.00;;;2.90;99.90;;;;;;4913560;29;20198;-79
2021/01/27 10:08:43;;;;;;;1.97;1.50;;;2.80;99.90;;;;;;4908751;29;20293;-80
2021/01/27 10:11:24;;;;;;;1.42;1.10;;;2.90;99.90;;;;;;4905976;29;20454;-80
2021/01/27 10:13:59;;;;;;;1.08;0.80;;;2.90;99.90;;;;;;4907906;29;20265;-78
2021/01/27 10:16:25;;;;;;;1.70;1.20;;;2.90;99.90;;;;;;4912178;29;20640;-78
2021/01/27 10:19:07;;;;;;;1.05;0.90;;;3.00;99.90;;;;;;4898647;29;20235;-79
2021/01/27 10:21:43;;;;;;;1.10;1.00;;;3.00;99.90;;;;;;4909468;29;20166;-78
2021/01/27 10:24:09;;;;;;;1.98;1.00;;;3.10;99.90;;;;;;4914071;29;20209;-78
2021/01/27 10:26:35;;;;;;;1.50;0.85;;;3.00;99.90;;;;;;4916071;29;20206;-78
2021/01/27 10:29:21;;;;;;;1.85;1.00;;;3.00;99.90;;;;;;4915172;29;20227;-79
2021/01/27 10:32:16;;;;;;;1.40;1.27;;;3.00;99.90;;;;;;4905190;29;20667;-80
2021/01/27 10:34:44;;;;;;;2.42;1.25;;;3.10;99.90;;;;;;4915328;29;20277;-78
2021/01/27 10:37:28;;;;;;;1.65;1.10;;;3.20;99.90;;;;;;4905314;29;20177;-79
2021/01/27 10:40:32;;;;;;;1.25;0.75;;;3.20;99.90;;;;;;4901875;29;20704;-81
2021/01/27 10:43:01;;;;;;;0.80;0.77;;;3.30;99.90;;;;;;4906974;29;20209;-78
2021/01/27 10:46:18;;;;;;;0.80;0.70;;;3.30;99.90;;;;;;4911450;29;20633;-81
2021/01/27 10:49:20;;;;;;;0.88;0.82;;;3.30;99.90;;;;;;4859328;29;20198;-81
2021/01/27 10:51:58;;;;;;;1.02;0.52;;;3.30;99.90;;;;;;4898036;29;20690;-81
2021/01/27 10:54:29;;;;;;;0.93;0.82;;;3.40;99.90;;;;;;4901315;29;20182;-79
2021/01/27 10:56:59;;;;;;;2.25;0.90;;;3.30;99.90;;;;;;4912671;29;20273;-79
2021/01/27 10:59:32;;;;;;;1.58;0.70;;;3.30;99.90;;;;;;4885915;29;20214;-81
2021/01/27 11:01:59;;;;;;;2.13;0.57;;;3.50;99.90;;;;;;4907070;29;20205;-80
2021/01/27 11:04:48;;;;;;;1.50;0.83;;;3.50;99.90;;;;;;4907586;29;20281;-81
2021/01/27 11:07:15;;;;;;;1.30;0.70;;;3.50;99.90;;;;;;4910988;29;20209;-78
2021/01/27 11:09:52;;;;;;;0.88;0.65;;;3.50;99.90;;;;;;4911498;29;20193;-78
2021/01/27 11:12:17;;;;;;;1.13;0.75;;;3.50;99.90;;;;;;4908445;29;20216;-78
2021/01/27 11:15:17;;;;;;;1.30;0.60;;;3.50;99.90;;;;;;4905609;29;20237;-80
2021/01/27 11:17:58;;;;;;;0.70;0.60;;;3.60;99.90;;;;;;4890960;29;20217;-80
2021/01/27 11:20:26;;;;;;;0.70;0.63;;;3.80;99.90;;;;;;4906768;29;20633;-80
2021/01/27 11:22:53;;;;;;;1.05;0.63;;;3.80;99.90;;;;;;4896501;29;20209;-78
2021/01/27 11:25:22;;;;;;;1.05;0.95;;;3.70;99.90;;;;;;5022190;23;20237;-79
2021/01/27 11:28:04;;;;;;;1.95;0.57;;;3.60;99.90;;;;;;4874559;29;20225;-81
2021/01/27 11:30:31;;;;;;;1.15;0.80;;;3.70;99.90;;;;;;4883480;29;20224;-80
2021/01/27 11:33:04;;;;;;;1.83;0.80;;;3.70;99.90;;;;;;4893881;29;20213;-81
2021/01/27 11:35:30;;;;;;;2.78;1.05;;;3.70;99.90;;;;;;4906215;29;20194;-79
2021/01/27 11:38:01;;;;;;;2.40;1.13;;;3.70;99.90;;;;;;4903259;29;20202;-81
2021/01/27 11:40:28;;;;;;;0.90;0.80;;;3.80;99.90;;;;;;4906245;29;20197;-79
2021/01/27 11:42:54;;;;;;;4.38;1.30;;;3.80;99.90;;;;;;4894605;29;20297;-81
2021/01/27 11:45:22;;;;;;;1.27;0.70;;;3.80;99.90;;;;;;4890211;29;20617;-81
2021/01/27 11:47:48;;;;;;;1.20;0.73;;;3.70;99.90;;;;;;4881537;29;20221;-79
2021/01/27 11:50:21;;;;;;;1.52;1.42;;;3.80;99.90;;;;;;4894950;29;20194;-80
2021/01/27 11:52:49;;;;;;;5.28;1.38;;;3.90;99.90;;;;;;4892468;29;20217;-80
2021/01/27 11:55:16;;;;;;;1.42;1.10;;;4.00;99.90;;;;;;4887780;29;20202;-78
2021/01/27 11:57:47;;;;;;;1.35;1.05;;;4.10;99.90;;;;;;4898162;29;20275;-80
2021/01/27 12:00:16;;;;;;;1.35;1.25;;;4.10;99.90;;;;;;4902917;29;20245;-79
2021/01/27 12:02:42;;;;;;;1.17;1.10;;;4.10;99.90;;;;;;4898680;29;20203;-78
2021/01/27 12:05:09;;;;;;;1.17;1.00;;;4.10;99.90;;;;;;4883067;29;20205;-80
2021/01/27 12:07:34;;;;;;;1.40;1.15;;;4.10;99.90;;;;;;4887187;29;20222;-79
2021/01/27 12:10:00;;;;;;;1.50;1.20;;;4.10;99.90;;;;;;4901052;29;20520;-78
2021/01/27 12:12:26;;;;;;;2.27;1.60;;;4.20;99.90;;;;;;4897944;29;20224;-80
2021/01/27 12:14:51;;;;;;;2.37;1.83;;;4.30;99.90;;;;;;4900832;29;20758;-78
2021/01/27 12:17:17;;;;;;;1.57;1.37;;;4.30;99.90;;;;;;4898700;29;20273;-80
2021/01/27 12:19:43;;;;;;;2.90;1.50;;;4.40;99.90;;;;;;4900797;29;20182;-79
2021/01/27 12:25:06;;;;;;;1.00;0.90;;;4.30;99.90;;;;;;4906841;29;20212;-78
2021/01/27 12:27:33;;;;;;;2.70;1.80;;;4.30;99.90;;;;;;4879176;29;20278;-79
2021/01/27 12:30:06;;;;;;;2.17;1.63;;;4.20;99.90;;;;;;4894938;29;20623;-79
2021/01/27 12:32:32;;;;;;;4.13;1.83;;;4.20;99.90;;;;;;4895550;29;20233;-78
2021/01/27 12:34:58;;;;;;;1.23;1.13;;;4.20;99.90;;;;;;4900332;29;20214;-78
2021/01/27 12:37:24;;;;;;;2.75;1.45;;;4.20;99.90;;;;;;4888163;29;20232;-78
2021/01/27 12:39:49;;;;;;;1.90;1.37;;;4.20;99.90;;;;;;4902246;29;20241;-78
2021/01/27 12:42:15;;;;;;;2.70;1.53;;;4.10;99.90;;;;;;4896745;29;20220;-78
2021/01/27 12:44:44;;;;;;;4.17;1.23;;;4.10;99.90;;;;;;4891506;29;20195;-80
2021/01/27 12:47:11;;;;;;;1.95;1.58;;;4.10;99.90;;;;;;4893996;29;20458;-78
2021/01/27 12:49:37;;;;;;;3.17;1.88;;;4.10;99.90;;;;;;4890721;29;20183;-78
2021/01/27 12:52:03;;;;;;;1.67;1.50;;;4.20;99.90;;;;;;4895911;29;20230;-78
2021/01/27 12:54:29;;;;;;;1.92;1.58;;;4.20;99.90;;;;;;4896457;29;20204;-80
2021/01/27 12:56:55;;;;;;;1.80;1.70;;;4.20;99.90;;;;;;4884734;29;20289;-80
2021/01/27 12:59:21;;;;;;;2.13;1.93;;;4.20;99.90;;;;;;4896663;29;20560;-78
2021/01/27 13:01:46;;;;;;;4.10;1.57;;;4.10;99.90;;;;;;4902932;29;20201;-77
2021/01/27 13:04:12;;;;;;;2.50;1.63;;;4.20;99.90;;;;;;4880396;29;20459;-80
2021/01/27 13:06:37;;;;;;;5.43;1.90;;;4.20;99.90;;;;;;4878371;29;20382;-79
2021/01/27 13:09:03;;;;;;;2.90;2.70;;;4.10;99.90;;;;;;4883190;29;20214;-79
2021/01/27 13:11:29;;;;;;;2.08;1.88;;;4.10;99.90;;;;;;4888214;29;20198;-80
2021/01/27 13:13:55;;;;;;;2.17;1.93;;;4.20;99.90;;;;;;4878878;29;20292;-80
2021/01/27 13:16:20;;;;;;;2.23;2.00;;;4.20;99.90;;;;;;4893276;29;20198;-79
2021/01/27 13:18:47;;;;;;;2.23;1.57;;;4.20;99.90;;;;;;4878286;29;20226;-79
2021/01/27 13:21:13;;;;;;;2.10;1.90;;;4.20;99.90;;;;;;4889613;29;20199;-80
2021/01/27 13:23:39;;;;;;;4.00;2.17;;;4.10;99.90;;;;;;4931885;23;20229;-78
2021/01/27 13:26:05;;;;;;;6.13;2.43;;;4.10;99.90;;;;;;4927959;29;20691;-78
2021/01/27 13:28:31;;;;;;;2.20;1.73;;;4.10;99.90;;;;;;4909941;29;20453;-78
2021/01/27 13:30:56;;;;;;;2.80;1.50;;;4.10;99.90;;;;;;4926876;29;20208;-78
2021/01/27 13:33:28;;;;;;;2.53;1.80;;;4.10;99.90;;;;;;4933914;29;20591;-79
2021/01/27 13:35:57;;;;;;;2.42;1.40;;;4.10;99.90;;;;;;4918503;29;20444;-80
2021/01/27 13:38:23;;;;;;;2.75;2.05;;;4.20;99.90;;;;;;4928578;29;20703;-79
2021/01/27 13:40:50;;;;;;;2.17;1.80;;;4.20;99.90;;;;;;4920930;29;20201;-79